Frontier A20N near Miami on Dec 27th 2017, flight attendant injured in flight

Last Update: December 27, 2017 / 19:18:37 GMT/Zulu time

Bookmark this article
Incident Facts

Date of incident
Dec 27, 2017

Classification
Accident

Flight number
F9-1795

Aircraft Registration
N309FR

Aircraft Type
Airbus A320-200N

ICAO Type Designator
A20N

Airport ICAO Code
KMIA

A Frontier Airlines Airbus A320-200N, registration N309FR performing flight F9-1795 (dep Dec 26th) from Islip,NY to Miami,FL (USA), was on approach to Miami's runway 09 when a flight attendant fell and received a shoulder injury. The aircraft continued for a safe landing on runway 09 maintaining routine communication and taxied to the apron.

The FAA reported the flight attendant fell during the approach to Miami as result of the flight and sustained an unknown shoulder injury.



Metars:
KMIA 270753Z 05004KT 10SM FEW026 23/18 A3019 RMK AO2 SLP222 T02280183=
KMIA 270653Z 03003KT 10SM FEW026 23/19 A3020 RMK AO2 SLP227 T02280189=
KMIA 270553Z 05005KT 10SM FEW025 23/19 A3021 RMK AO2 SLP230 T02280189 10244 20228 58014=
KMIA 270453Z 04004KT 10SM FEW025 FEW090 23/19 A3023 RMK AO2 SLP236 T02330189 402830211=
KMIA 270353Z 06006KT 10SM FEW020 FEW090 23/19 A3024 RMK AO2 SLP241 T02330189=
KMIA 270253Z 05006KT 10SM FEW020 FEW090 24/19 A3025 RMK AO2 SLP243 T02390189 51009=
Aircraft Registration Data New!
Registration mark
N309FR
Country of Registration
United States
Date of Registration
Nnkgbp f kmjek Subscribe to unlock
Manufacturer
AIRBUS
Aircraft Model / Type
A320-251N
Number of Seats
ICAO Aircraft Type
A20N
Year of Manufacture
Serial Number
Aircraft Address / Mode S Code (HEX)
Engine Count
Engine Manufacturer
Engine Model
Engine Type
Pounds of Thrust
Main Owner
Gplcngfeljjk cbfbAhjijpqjcq AkidAhebmkiclgnn endklAjcAhhA lklccpgAiign kibcjejkldlcAllcqcpkfqmcijflfmqmpnlfjcm Subscribe to unlock
Incident Facts

Date of incident
Dec 27, 2017

Classification
Accident

Flight number
F9-1795

Aircraft Registration
N309FR

Aircraft Type
Airbus A320-200N

ICAO Type Designator
A20N

Airport ICAO Code
KMIA

This article is published under license from Avherald.com. © of text by Avherald.com.
Article source

You can read 4 more free articles without a subscription.

Subscribe now and continue reading without any limits!

Are you a subscriber?
Login
Subscribe

Read unlimited articles and receive our daily update briefing. Gain better insights into what is happening in commercial aviation safety.

Free newsletter

Want to know more and stay ahead? Get our free weekly newsletter and join 4941 existing subscribers.

By subscribing, you accept our terms and conditions and confirm that you've read our privacy policy.

Send tip

Support AeroInside by sending a small tip amount.

Related articles

Newest articles

Subscribe today

Are you researching aviation incidents? Get access to AeroInside Insights, unlimited read access and receive the daily newsletter.

Pick your plan and subscribe

Partner

Blockaviation logo

A new way to document and demonstrate airworthiness compliance and aircraft value. Find out more.

Virtual Speech logo

ELITE Simulation Solutions is a leading global provider of Flight Simulation Training Devices, IFR training software as well as flight controls and related services. Find out more.

Get updates

Never miss an article from AeroInside. Subscribe to our free weekly newsletter and join 4941 existing subscribers.

By subscribing, you accept our terms and conditions and that you've read our privacy policy.

AeroInside Blog
Popular aircraft
Airbus A320
Boeing 737-800
Boeing 737-800 MAX
Popular airlines
American Airlines
United
Delta
Air Canada
Lufthansa
British Airways